sensor_id;sensor_type;location;lat;lon;timestamp;P1;durP1;ratioP1;P2;durP2;ratioP2
39620;SDS011;25309;48.686;9.170;2023-05-02T00:00:28;5.70;;;3.50;;
39620;SDS011;25309;48.686;9.170;2023-05-02T00:02:54;4.03;;;3.33;;
39620;SDS011;25309;48.686;9.170;2023-05-02T00:05:22;3.90;;;3.40;;
39620;SDS011;25309;48.686;9.170;2023-05-02T00:07:50;4.37;;;3.27;;
39620;SDS011;25309;48.686;9.170;2023-05-02T00:10:17;4.40;;;3.70;;
39620;SDS011;25309;48.686;9.170;2023-05-02T00:12:46;4.87;;;3.90;;
39620;SDS011;25309;48.686;9.170;2023-05-02T00:15:13;4.10;;;3.70;;
39620;SDS011;25309;48.686;9.170;2023-05-02T00:17:40;4.93;;;3.53;;
39620;SDS011;25309;48.686;9.170;2023-05-02T00:20:09;4.17;;;3.57;;
39620;SDS011;25309;48.686;9.170;2023-05-02T00:22:37;4.77;;;3.80;;
39620;SDS011;25309;48.686;9.170;2023-05-02T00:25:04;5.37;;;3.50;;
39620;SDS011;25309;48.686;9.170;2023-05-02T00:27:32;4.00;;;3.60;;
39620;SDS011;25309;48.686;9.170;2023-05-02T00:30:01;4.87;;;3.60;;
39620;SDS011;25309;48.686;9.170;2023-05-02T00:32:28;4.13;;;3.60;;
39620;SDS011;25309;48.686;9.170;2023-05-02T00:34:55;4.30;;;3.70;;
39620;SDS011;25309;48.686;9.170;2023-05-02T00:37:24;4.43;;;3.80;;
39620;SDS011;25309;48.686;9.170;2023-05-02T00:39:52;5.10;;;4.13;;
39620;SDS011;25309;48.686;9.170;2023-05-02T00:42:19;4.70;;;4.07;;
39620;SDS011;25309;48.686;9.170;2023-05-02T00:44:46;4.50;;;3.90;;
39620;SDS011;25309;48.686;9.170;2023-05-02T00:47:15;4.80;;;3.90;;
39620;SDS011;25309;48.686;9.170;2023-05-02T00:49:42;4.73;;;4.00;;
39620;SDS011;25309;48.686;9.170;2023-05-02T00:52:09;5.17;;;3.97;;
39620;SDS011;25309;48.686;9.170;2023-05-02T00:54:36;4.67;;;3.90;;
39620;SDS011;25309;48.686;9.170;2023-05-02T00:57:04;5.17;;;4.50;;
39620;SDS011;25309;48.686;9.170;2023-05-02T00:59:32;5.27;;;3.63;;
39620;SDS011;25309;48.686;9.170;2023-05-02T01:02:04;5.57;;;4.40;;
39620;SDS011;25309;48.686;9.170;2023-05-02T01:04:46;4.93;;;4.13;;
39620;SDS011;25309;48.686;9.170;2023-05-02T01:07:26;5.30;;;4.37;;
39620;SDS011;25309;48.686;9.170;2023-05-02T01:10:07;4.90;;;4.40;;
39620;SDS011;25309;48.686;9.170;2023-05-02T01:12:40;6.50;;;4.87;;
39620;SDS011;25309;48.686;9.170;2023-05-02T01:15:11;5.80;;;4.40;;
39620;SDS011;25309;48.686;9.170;2023-05-02T01:17:44;5.67;;;4.43;;
39620;SDS011;25309;48.686;9.170;2023-05-02T01:20:15;5.00;;;4.50;;
39620;SDS011;25309;48.686;9.170;2023-05-02T01:22:45;4.57;;;4.07;;
39620;SDS011;25309;48.686;9.170;2023-05-02T01:25:17;7.30;;;4.73;;
39620;SDS011;25309;48.686;9.170;2023-05-02T01:27:55;5.47;;;4.37;;
39620;SDS011;25309;48.686;9.170;2023-05-02T01:30:31;4.97;;;4.30;;
39620;SDS011;25309;48.686;9.170;2023-05-02T01:33:01;5.17;;;4.27;;
39620;SDS011;25309;48.686;9.170;2023-05-02T01:35:30;5.93;;;4.30;;
39620;SDS011;25309;48.686;9.170;2023-05-02T01:37:59;5.47;;;4.40;;
39620;SDS011;25309;48.686;9.170;2023-05-02T01:40:28;5.20;;;4.30;;
39620;SDS011;25309;48.686;9.170;2023-05-02T01:42:56;5.10;;;4.47;;
39620;SDS011;25309;48.686;9.170;2023-05-02T01:45:24;5.73;;;4.70;;
39620;SDS011;25309;48.686;9.170;2023-05-02T01:47:54;5.13;;;4.53;;
39620;SDS011;25309;48.686;9.170;2023-05-02T01:50:23;5.00;;;4.50;;
39620;SDS011;25309;48.686;9.170;2023-05-02T01:52:52;4.97;;;4.37;;
39620;SDS011;25309;48.686;9.170;2023-05-02T01:55:20;6.57;;;4.77;;
39620;SDS011;25309;48.686;9.170;2023-05-02T01:57:48;5.33;;;4.40;;
39620;SDS011;25309;48.686;9.170;2023-05-02T02:00:18;5.17;;;4.57;;
39620;SDS011;25309;48.686;9.170;2023-05-02T02:02:47;5.60;;;4.67;;
39620;SDS011;25309;48.686;9.170;2023-05-02T02:05:17;6.77;;;4.90;;
39620;SDS011;25309;48.686;9.170;2023-05-02T02:07:45;5.80;;;4.63;;
39620;SDS011;25309;48.686;9.170;2023-05-02T02:10:13;5.43;;;4.40;;
39620;SDS011;25309;48.686;9.170;2023-05-02T02:12:41;5.40;;;4.80;;
39620;SDS011;25309;48.686;9.170;2023-05-02T02:15:12;5.33;;;4.63;;
39620;SDS011;25309;48.686;9.170;2023-05-02T02:17:45;5.10;;;4.57;;
39620;SDS011;25309;48.686;9.170;2023-05-02T02:20:20;5.90;;;4.60;;
39620;SDS011;25309;48.686;9.170;2023-05-02T02:22:47;5.63;;;4.63;;
39620;SDS011;25309;48.686;9.170;2023-05-02T02:25:16;5.17;;;4.67;;
39620;SDS011;25309;48.686;9.170;2023-05-02T02:27:44;5.40;;;4.60;;
39620;SDS011;25309;48.686;9.170;2023-05-02T02:30:12;5.23;;;4.73;;
39620;SDS011;25309;48.686;9.170;2023-05-02T02:32:39;5.50;;;4.57;;
39620;SDS011;25309;48.686;9.170;2023-05-02T02:35:06;5.30;;;4.63;;
39620;SDS011;25309;48.686;9.170;2023-05-02T02:37:36;5.60;;;5.10;;
39620;SDS011;25309;48.686;9.170;2023-05-02T02:40:08;5.73;;;4.87;;
39620;SDS011;25309;48.686;9.170;2023-05-02T02:42:43;5.70;;;5.10;;
39620;SDS011;25309;48.686;9.170;2023-05-02T02:45:16;6.53;;;5.03;;
39620;SDS011;25309;48.686;9.170;2023-05-02T02:47:53;5.80;;;5.13;;
39620;SDS011;25309;48.686;9.170;2023-05-02T02:50:29;7.93;;;5.27;;
39620;SDS011;25309;48.686;9.170;2023-05-02T02:53:00;6.20;;;5.30;;
39620;SDS011;25309;48.686;9.170;2023-05-02T02:55:33;7.00;;;5.20;;
39620;SDS011;25309;48.686;9.170;2023-05-02T02:58:06;5.40;;;4.83;;
39620;SDS011;25309;48.686;9.170;2023-05-02T03:00:46;5.93;;;5.30;;
39620;SDS011;25309;48.686;9.170;2023-05-02T03:03:15;7.90;;;5.53;;
39620;SDS011;25309;48.686;9.170;2023-05-02T03:05:44;7.30;;;5.40;;
39620;SDS011;25309;48.686;9.170;2023-05-02T03:08:14;7.00;;;5.37;;
39620;SDS011;25309;48.686;9.170;2023-05-02T03:10:41;6.63;;;5.37;;
39620;SDS011;25309;48.686;9.170;2023-05-02T03:13:09;6.40;;;5.60;;
39620;SDS011;25309;48.686;9.170;2023-05-02T03:15:49;6.30;;;5.70;;
39620;SDS011;25309;48.686;9.170;2023-05-02T03:18:38;7.67;;;5.73;;
39620;SDS011;25309;48.686;9.170;2023-05-02T03:21:05;6.70;;;5.93;;
39620;SDS011;25309;48.686;9.170;2023-05-02T03:23:35;6.70;;;5.97;;
39620;SDS011;25309;48.686;9.170;2023-05-02T03:26:02;6.23;;;5.47;;
39620;SDS011;25309;48.686;9.170;2023-05-02T03:28:29;6.37;;;5.70;;
39620;SDS011;25309;48.686;9.170;2023-05-02T03:30:58;7.70;;;5.80;;
39620;SDS011;25309;48.686;9.170;2023-05-02T03:33:25;7.30;;;5.73;;
39620;SDS011;25309;48.686;9.170;2023-05-02T03:35:52;8.27;;;6.10;;
39620;SDS011;25309;48.686;9.170;2023-05-02T03:38:19;8.13;;;5.73;;
39620;SDS011;25309;48.686;9.170;2023-05-02T03:40:49;7.43;;;6.50;;
39620;SDS011;25309;48.686;9.170;2023-05-02T03:43:16;6.97;;;6.10;;
39620;SDS011;25309;48.686;9.170;2023-05-02T03:45:44;6.37;;;5.20;;
39620;SDS011;25309;48.686;9.170;2023-05-02T03:48:14;6.63;;;5.87;;
39620;SDS011;25309;48.686;9.170;2023-05-02T03:50:41;7.67;;;6.07;;
39620;SDS011;25309;48.686;9.170;2023-05-02T03:53:08;7.10;;;5.90;;
39620;SDS011;25309;48.686;9.170;2023-05-02T03:55:45;6.50;;;5.77;;
39620;SDS011;25309;48.686;9.170;2023-05-02T03:58:21;7.03;;;5.93;;
39620;SDS011;25309;48.686;9.170;2023-05-02T04:00:48;6.47;;;5.47;;
39620;SDS011;25309;48.686;9.170;2023-05-02T04:03:16;6.93;;;5.80;;
39620;SDS011;25309;48.686;9.170;2023-05-02T04:05:44;7.77;;;5.90;;
39620;SDS011;25309;48.686;9.170;2023-05-02T04:08:13;5.73;;;5.03;;
39620;SDS011;25309;48.686;9.170;2023-05-02T04:10:41;7.27;;;6.00;;
39620;SDS011;25309;48.686;9.170;2023-05-02T04:13:09;6.83;;;5.80;;
39620;SDS011;25309;48.686;9.170;2023-05-02T04:15:41;7.57;;;6.10;;
39620;SDS011;25309;48.686;9.170;2023-05-02T04:18:12;7.37;;;5.87;;
39620;SDS011;25309;48.686;9.170;2023-05-02T04:20:41;7.30;;;5.50;;
39620;SDS011;25309;48.686;9.170;2023-05-02T04:23:10;6.93;;;6.10;;
39620;SDS011;25309;48.686;9.170;2023-05-02T04:25:37;7.53;;;6.00;;
39620;SDS011;25309;48.686;9.170;2023-05-02T04:28:04;7.40;;;6.50;;
39620;SDS011;25309;48.686;9.170;2023-05-02T04:30:31;7.17;;;6.30;;
39620;SDS011;25309;48.686;9.170;2023-05-02T04:33:05;8.40;;;6.37;;
39620;SDS011;25309;48.686;9.170;2023-05-02T04:35:38;6.83;;;6.10;;
39620;SDS011;25309;48.686;9.170;2023-05-02T04:38:06;7.07;;;5.73;;
39620;SDS011;25309;48.686;9.170;2023-05-02T04:40:34;7.53;;;6.57;;
39620;SDS011;25309;48.686;9.170;2023-05-02T04:43:04;8.07;;;6.37;;
39620;SDS011;25309;48.686;9.170;2023-05-02T04:45:57;7.60;;;6.40;;
39620;SDS011;25309;48.686;9.170;2023-05-02T04:48:30;7.13;;;6.43;;
39620;SDS011;25309;48.686;9.170;2023-05-02T04:50:57;8.10;;;5.97;;
39620;SDS011;25309;48.686;9.170;2023-05-02T04:53:25;7.17;;;6.17;;
39620;SDS011;25309;48.686;9.170;2023-05-02T04:55:52;10.07;;;8.17;;
39620;SDS011;25309;48.686;9.170;2023-05-02T04:58:19;7.60;;;6.80;;
39620;SDS011;25309;48.686;9.170;2023-05-02T05:00:53;8.73;;;6.63;;
39620;SDS011;25309;48.686;9.170;2023-05-02T05:03:20;6.87;;;6.10;;
39620;SDS011;25309;48.686;9.170;2023-05-02T05:05:48;6.50;;;5.80;;
39620;SDS011;25309;48.686;9.170;2023-05-02T05:08:17;7.73;;;6.40;;
39620;SDS011;25309;48.686;9.170;2023-05-02T05:10:44;7.00;;;5.87;;
39620;SDS011;25309;48.686;9.170;2023-05-02T05:13:11;7.63;;;6.50;;
39620;SDS011;25309;48.686;9.170;2023-05-02T05:15:40;7.30;;;5.80;;
39620;SDS011;25309;48.686;9.170;2023-05-02T05:18:08;7.63;;;6.33;;
39620;SDS011;25309;48.686;9.170;2023-05-02T05:20:36;7.83;;;6.73;;
39620;SDS011;25309;48.686;9.170;2023-05-02T05:23:05;8.20;;;6.50;;
39620;SDS011;25309;48.686;9.170;2023-05-02T05:25:32;7.10;;;6.40;;
39620;SDS011;25309;48.686;9.170;2023-05-02T05:27:59;7.90;;;6.37;;
39620;SDS011;25309;48.686;9.170;2023-05-02T05:30:27;7.90;;;6.53;;
39620;SDS011;25309;48.686;9.170;2023-05-02T05:32:57;7.03;;;6.07;;
39620;SDS011;25309;48.686;9.170;2023-05-02T05:35:24;7.83;;;6.43;;
39620;SDS011;25309;48.686;9.170;2023-05-02T05:37:51;8.20;;;6.97;;
39620;SDS011;25309;48.686;9.170;2023-05-02T05:40:20;6.70;;;5.87;;
39620;SDS011;25309;48.686;9.170;2023-05-02T05:42:52;7.43;;;6.03;;
39620;SDS011;25309;48.686;9.170;2023-05-02T05:45:24;7.57;;;5.93;;
39620;SDS011;25309;48.686;9.170;2023-05-02T05:47:52;6.73;;;6.03;;
39620;SDS011;25309;48.686;9.170;2023-05-02T05:50:21;6.93;;;6.00;;
39620;SDS011;25309;48.686;9.170;2023-05-02T05:52:49;7.00;;;6.00;;
39620;SDS011;25309;48.686;9.170;2023-05-02T05:55:16;7.10;;;6.03;;
39620;SDS011;25309;48.686;9.170;2023-05-02T05:57:44;7.90;;;6.57;;
39620;SDS011;25309;48.686;9.170;2023-05-02T06:00:12;8.20;;;6.53;;
39620;SDS011;25309;48.686;9.170;2023-05-02T06:02:46;7.57;;;6.03;;
39620;SDS011;25309;48.686;9.170;2023-05-02T06:05:39;8.87;;;6.57;;
39620;SDS011;25309;48.686;9.170;2023-05-02T06:08:06;8.37;;;6.93;;
39620;SDS011;25309;48.686;9.170;2023-05-02T06:10:34;8.63;;;6.90;;
39620;SDS011;25309;48.686;9.170;2023-05-02T06:13:03;8.50;;;7.03;;
39620;SDS011;25309;48.686;9.170;2023-05-02T06:15:34;9.17;;;6.90;;
39620;SDS011;25309;48.686;9.170;2023-05-02T06:18:03;8.00;;;7.20;;
39620;SDS011;25309;48.686;9.170;2023-05-02T06:20:30;8.37;;;6.90;;
39620;SDS011;25309;48.686;9.170;2023-05-02T06:22:57;8.80;;;7.00;;
39620;SDS011;25309;48.686;9.170;2023-05-02T06:25:24;7.87;;;6.80;;
39620;SDS011;25309;48.686;9.170;2023-05-02T06:27:51;9.83;;;7.87;;
39620;SDS011;25309;48.686;9.170;2023-05-02T06:30:19;9.03;;;7.83;;
39620;SDS011;25309;48.686;9.170;2023-05-02T06:32:46;9.50;;;7.37;;
39620;SDS011;25309;48.686;9.170;2023-05-02T06:35:13;8.87;;;7.67;;
39620;SDS011;25309;48.686;9.170;2023-05-02T06:37:41;10.87;;;8.63;;
39620;SDS011;25309;48.686;9.170;2023-05-02T06:40:09;9.73;;;8.70;;
39620;SDS011;25309;48.686;9.170;2023-05-02T06:42:36;10.40;;;8.93;;
39620;SDS011;25309;48.686;9.170;2023-05-02T06:45:03;13.33;;;10.23;;
39620;SDS011;25309;48.686;9.170;2023-05-02T06:47:32;11.20;;;10.03;;
39620;SDS011;25309;48.686;9.170;2023-05-02T06:49:59;12.47;;;10.80;;
39620;SDS011;25309;48.686;9.170;2023-05-02T06:52:26;12.47;;;10.87;;
39620;SDS011;25309;48.686;9.170;2023-05-02T06:54:53;13.33;;;11.10;;
39620;SDS011;25309;48.686;9.170;2023-05-02T06:57:20;11.70;;;10.35;;
39620;SDS011;25309;48.686;9.170;2023-05-02T06:59:47;13.90;;;11.73;;
39620;SDS011;25309;48.686;9.170;2023-05-02T07:02:14;14.10;;;11.13;;
39620;SDS011;25309;48.686;9.170;2023-05-02T07:04:42;13.63;;;11.97;;
39620;SDS011;25309;48.686;9.170;2023-05-02T07:07:09;14.37;;;12.07;;
39620;SDS011;25309;48.686;9.170;2023-05-02T07:09:36;15.80;;;12.23;;
39620;SDS011;25309;48.686;9.170;2023-05-02T07:12:03;14.67;;;12.63;;
39620;SDS011;25309;48.686;9.170;2023-05-02T07:14:32;14.10;;;11.60;;
39620;SDS011;25309;48.686;9.170;2023-05-02T07:16:59;15.03;;;12.37;;
39620;SDS011;25309;48.686;9.170;2023-05-02T07:19:26;15.40;;;12.40;;
39620;SDS011;25309;48.686;9.170;2023-05-02T07:21:54;17.50;;;12.43;;
39620;SDS011;25309;48.686;9.170;2023-05-02T07:24:21;16.30;;;13.63;;
39620;SDS011;25309;48.686;9.170;2023-05-02T07:26:48;15.37;;;12.90;;
39620;SDS011;25309;48.686;9.170;2023-05-02T07:29:15;16.50;;;13.37;;
39620;SDS011;25309;48.686;9.170;2023-05-02T07:31:42;15.27;;;13.67;;
39620;SDS011;25309;48.686;9.170;2023-05-02T07:34:09;16.10;;;14.13;;
39620;SDS011;25309;48.686;9.170;2023-05-02T07:36:36;16.83;;;14.33;;
39620;SDS011;25309;48.686;9.170;2023-05-02T07:39:05;18.20;;;14.70;;
39620;SDS011;25309;48.686;9.170;2023-05-02T07:41:32;15.70;;;13.70;;
39620;SDS011;25309;48.686;9.170;2023-05-02T07:43:59;16.00;;;13.83;;
39620;SDS011;25309;48.686;9.170;2023-05-02T07:46:26;16.53;;;14.47;;
39620;SDS011;25309;48.686;9.170;2023-05-02T07:48:53;16.57;;;14.00;;
39620;SDS011;25309;48.686;9.170;2023-05-02T07:51:20;18.13;;;14.17;;
39620;SDS011;25309;48.686;9.170;2023-05-02T07:53:49;16.03;;;14.17;;
39620;SDS011;25309;48.686;9.170;2023-05-02T07:56:20;17.70;;;14.90;;
39620;SDS011;25309;48.686;9.170;2023-05-02T07:58:47;16.83;;;15.00;;
39620;SDS011;25309;48.686;9.170;2023-05-02T08:01:14;18.30;;;15.30;;
39620;SDS011;25309;48.686;9.170;2023-05-02T08:03:41;19.57;;;15.80;;
39620;SDS011;25309;48.686;9.170;2023-05-02T08:06:09;18.27;;;15.93;;
39620;SDS011;25309;48.686;9.170;2023-05-02T08:08:36;16.93;;;15.03;;
39620;SDS011;25309;48.686;9.170;2023-05-02T08:11:03;18.20;;;15.10;;
39620;SDS011;25309;48.686;9.170;2023-05-02T08:13:31;18.67;;;15.47;;
39620;SDS011;25309;48.686;9.170;2023-05-02T08:15:58;17.50;;;15.60;;
39620;SDS011;25309;48.686;9.170;2023-05-02T08:18:25;18.13;;;15.57;;
39620;SDS011;25309;48.686;9.170;2023-05-02T08:20:53;18.20;;;15.63;;
39620;SDS011;25309;48.686;9.170;2023-05-02T08:23:21;18.10;;;15.87;;
39620;SDS011;25309;48.686;9.170;2023-05-02T08:25:48;18.07;;;15.90;;
39620;SDS011;25309;48.686;9.170;2023-05-02T08:28:15;19.30;;;16.90;;
39620;SDS011;25309;48.686;9.170;2023-05-02T08:30:43;19.77;;;16.53;;
39620;SDS011;25309;48.686;9.170;2023-05-02T08:33:10;19.10;;;16.07;;
39620;SDS011;25309;48.686;9.170;2023-05-02T08:35:37;19.60;;;16.90;;
39620;SDS011;25309;48.686;9.170;2023-05-02T08:38:04;20.37;;;16.80;;
39620;SDS011;25309;48.686;9.170;2023-05-02T08:40:31;21.90;;;17.30;;
39620;SDS011;25309;48.686;9.170;2023-05-02T08:43:08;20.27;;;16.87;;
39620;SDS011;25309;48.686;9.170;2023-05-02T08:45:38;22.10;;;17.57;;
39620;SDS011;25309;48.686;9.170;2023-05-02T08:48:08;20.53;;;18.10;;
39620;SDS011;25309;48.686;9.170;2023-05-02T08:50:37;21.20;;;17.47;;
39620;SDS011;25309;48.686;9.170;2023-05-02T08:53:04;22.37;;;18.10;;
39620;SDS011;25309;48.686;9.170;2023-05-02T08:55:33;21.13;;;18.33;;
39620;SDS011;25309;48.686;9.170;2023-05-02T08:58:01;22.07;;;17.90;;
39620;SDS011;25309;48.686;9.170;2023-05-02T09:00:30;21.47;;;18.10;;
39620;SDS011;25309;48.686;9.170;2023-05-02T09:03:01;22.13;;;17.83;;
39620;SDS011;25309;48.686;9.170;2023-05-02T09:05:37;23.83;;;19.27;;
39620;SDS011;25309;48.686;9.170;2023-05-02T09:08:06;22.67;;;18.33;;
39620;SDS011;25309;48.686;9.170;2023-05-02T09:10:34;19.13;;;16.93;;
39620;SDS011;25309;48.686;9.170;2023-05-02T09:15:57;21.37;;;18.37;;
39620;SDS011;25309;48.686;9.170;2023-05-02T09:18:28;21.27;;;18.57;;
39620;SDS011;25309;48.686;9.170;2023-05-02T09:20:58;20.80;;;17.57;;
39620;SDS011;25309;48.686;9.170;2023-05-02T09:23:33;21.60;;;17.07;;
39620;SDS011;25309;48.686;9.170;2023-05-02T09:26:00;20.43;;;17.13;;
39620;SDS011;25309;48.686;9.170;2023-05-02T09:28:36;19.40;;;16.17;;
39620;SDS011;25309;48.686;9.170;2023-05-02T09:31:05;19.47;;;15.60;;
39620;SDS011;25309;48.686;9.170;2023-05-02T09:33:34;16.83;;;14.97;;
39620;SDS011;25309;48.686;9.170;2023-05-02T09:36:02;16.27;;;14.37;;
39620;SDS011;25309;48.686;9.170;2023-05-02T09:38:30;17.13;;;14.07;;
39620;SDS011;25309;48.686;9.170;2023-05-02T09:40:57;15.80;;;13.80;;
39620;SDS011;25309;48.686;9.170;2023-05-02T09:43:25;17.10;;;13.67;;
39620;SDS011;25309;48.686;9.170;2023-05-02T09:45:55;16.10;;;13.53;;
39620;SDS011;25309;48.686;9.170;2023-05-02T09:48:24;13.60;;;12.20;;
39620;SDS011;25309;48.686;9.170;2023-05-02T09:50:52;16.00;;;13.57;;
39620;SDS011;25309;48.686;9.170;2023-05-02T09:53:21;14.83;;;12.83;;
39620;SDS011;25309;48.686;9.170;2023-05-02T09:55:58;13.30;;;11.60;;
39620;SDS011;25309;48.686;9.170;2023-05-02T09:58:27;14.27;;;11.77;;
39620;SDS011;25309;48.686;9.170;2023-05-02T10:00:56;14.50;;;11.90;;
39620;SDS011;25309;48.686;9.170;2023-05-02T10:03:24;12.23;;;10.93;;
39620;SDS011;25309;48.686;9.170;2023-05-02T10:05:52;13.10;;;11.70;;
39620;SDS011;25309;48.686;9.170;2023-05-02T10:08:21;12.67;;;10.87;;
39620;SDS011;25309;48.686;9.170;2023-05-02T10:10:52;13.50;;;11.80;;
39620;SDS011;25309;48.686;9.170;2023-05-02T10:13:20;14.13;;;12.17;;
39620;SDS011;25309;48.686;9.170;2023-05-02T10:15:50;14.30;;;12.67;;
39620;SDS011;25309;48.686;9.170;2023-05-02T10:18:25;13.70;;;12.13;;
39620;SDS011;25309;48.686;9.170;2023-05-02T10:20:57;15.53;;;12.47;;
39620;SDS011;25309;48.686;9.170;2023-05-02T10:23:27;13.37;;;11.93;;
39620;SDS011;25309;48.686;9.170;2023-05-02T10:25:56;14.17;;;12.07;;
39620;SDS011;25309;48.686;9.170;2023-05-02T10:28:25;15.80;;;12.57;;
39620;SDS011;25309;48.686;9.170;2023-05-02T10:30:53;13.10;;;11.70;;
39620;SDS011;25309;48.686;9.170;2023-05-02T10:33:20;13.03;;;11.73;;
39620;SDS011;25309;48.686;9.170;2023-05-02T10:35:48;13.30;;;11.93;;
39620;SDS011;25309;48.686;9.170;2023-05-02T10:38:16;11.23;;;9.93;;
39620;SDS011;25309;48.686;9.170;2023-05-02T10:40:50;11.60;;;10.43;;
39620;SDS011;25309;48.686;9.170;2023-05-02T10:43:22;14.33;;;12.83;;
39620;SDS011;25309;48.686;9.170;2023-05-02T10:45:51;14.20;;;11.90;;
39620;SDS011;25309;48.686;9.170;2023-05-02T10:48:19;14.27;;;12.77;;
39620;SDS011;25309;48.686;9.170;2023-05-02T10:50:48;13.87;;;12.47;;
39620;SDS011;25309;48.686;9.170;2023-05-02T10:53:23;15.00;;;13.33;;
39620;SDS011;25309;48.686;9.170;2023-05-02T10:56:08;15.40;;;12.73;;
39620;SDS011;25309;48.686;9.170;2023-05-02T10:58:43;15.87;;;14.17;;
39620;SDS011;25309;48.686;9.170;2023-05-02T11:04:03;14.80;;;13.30;;
39620;SDS011;25309;48.686;9.170;2023-05-02T11:06:32;13.30;;;11.90;;
39620;SDS011;25309;48.686;9.170;2023-05-02T11:11:58;13.17;;;10.20;;
39620;SDS011;25309;48.686;9.170;2023-05-02T11:14:42;13.07;;;10.93;;
39620;SDS011;25309;48.686;9.170;2023-05-02T11:17:12;11.50;;;10.07;;
39620;SDS011;25309;48.686;9.170;2023-05-02T11:22:49;10.57;;;9.00;;
39620;SDS011;25309;48.686;9.170;2023-05-02T11:28:07;10.63;;;9.53;;
39620;SDS011;25309;48.686;9.170;2023-05-02T11:30:54;10.47;;;9.37;;
39620;SDS011;25309;48.686;9.170;2023-05-02T11:33:23;9.97;;;8.70;;
39620;SDS011;25309;48.686;9.170;2023-05-02T11:35:50;10.57;;;8.37;;
39620;SDS011;25309;48.686;9.170;2023-05-02T11:38:20;10.50;;;9.40;;
39620;SDS011;25309;48.686;9.170;2023-05-02T11:40:51;9.70;;;8.73;;
39620;SDS011;25309;48.686;9.170;2023-05-02T11:43:25;10.07;;;8.17;;
39620;SDS011;25309;48.686;9.170;2023-05-02T11:45:57;9.00;;;8.10;;
39620;SDS011;25309;48.686;9.170;2023-05-02T11:48:25;9.53;;;8.50;;
39620;SDS011;25309;48.686;9.170;2023-05-02T11:50:53;9.00;;;8.10;;
39620;SDS011;25309;48.686;9.170;2023-05-02T11:53:22;10.43;;;9.33;;
39620;SDS011;25309;48.686;9.170;2023-05-02T11:55:51;9.30;;;8.40;;
39620;SDS011;25309;48.686;9.170;2023-05-02T11:58:22;10.67;;;9.57;;
39620;SDS011;25309;48.686;9.170;2023-05-02T12:00:51;10.27;;;9.30;;
39620;SDS011;25309;48.686;9.170;2023-05-02T12:03:23;9.17;;;8.27;;
39620;SDS011;25309;48.686;9.170;2023-05-02T12:05:52;10.77;;;8.93;;
39620;SDS011;25309;48.686;9.170;2023-05-02T12:08:20;10.60;;;9.60;;
39620;SDS011;25309;48.686;9.170;2023-05-02T12:10:49;11.23;;;10.13;;
39620;SDS011;25309;48.686;9.170;2023-05-02T12:13:18;11.07;;;8.80;;
39620;SDS011;25309;48.686;9.170;2023-05-02T12:15:48;9.67;;;8.57;;
39620;SDS011;25309;48.686;9.170;2023-05-02T12:18:16;11.53;;;10.00;;
39620;SDS011;25309;48.686;9.170;2023-05-02T12:20:47;11.33;;;10.23;;
39620;SDS011;25309;48.686;9.170;2023-05-02T12:23:14;12.17;;;10.97;;
39620;SDS011;25309;48.686;9.170;2023-05-02T12:25:41;12.60;;;11.33;;
39620;SDS011;25309;48.686;9.170;2023-05-02T12:28:09;12.00;;;10.67;;
39620;SDS011;25309;48.686;9.170;2023-05-02T12:30:36;10.53;;;9.43;;
39620;SDS011;25309;48.686;9.170;2023-05-02T12:33:06;11.77;;;10.47;;
39620;SDS011;25309;48.686;9.170;2023-05-02T12:35:34;14.60;;;13.10;;
39620;SDS011;25309;48.686;9.170;2023-05-02T12:38:13;14.37;;;12.87;;
39620;SDS011;25309;48.686;9.170;2023-05-02T12:40:45;12.47;;;11.17;;
39620;SDS011;25309;48.686;9.170;2023-05-02T12:43:14;13.73;;;11.83;;
39620;SDS011;25309;48.686;9.170;2023-05-02T12:45:41;13.17;;;11.87;;
39620;SDS011;25309;48.686;9.170;2023-05-02T12:48:20;13.03;;;11.67;;
39620;SDS011;25309;48.686;9.170;2023-05-02T12:50:48;13.93;;;12.50;;
39620;SDS011;25309;48.686;9.170;2023-05-02T12:53:16;15.90;;;12.97;;
39620;SDS011;25309;48.686;9.170;2023-05-02T12:55:43;13.50;;;12.10;;
39620;SDS011;25309;48.686;9.170;2023-05-02T12:58:10;15.67;;;13.77;;
39620;SDS011;25309;48.686;9.170;2023-05-02T13:00:42;14.47;;;12.97;;
39620;SDS011;25309;48.686;9.170;2023-05-02T13:03:12;15.10;;;13.57;;
39620;SDS011;25309;48.686;9.170;2023-05-02T13:05:40;16.67;;;14.83;;
39620;SDS011;25309;48.686;9.170;2023-05-02T13:08:07;16.20;;;14.03;;
39620;SDS011;25309;48.686;9.170;2023-05-02T13:10:34;14.73;;;13.17;;
39620;SDS011;25309;48.686;9.170;2023-05-02T13:13:01;13.27;;;11.87;;
39620;SDS011;25309;48.686;9.170;2023-05-02T13:15:28;14.23;;;12.50;;
39620;SDS011;25309;48.686;9.170;2023-05-02T13:17:56;14.80;;;13.00;;
39620;SDS011;25309;48.686;9.170;2023-05-02T13:20:23;16.47;;;13.93;;
39620;SDS011;25309;48.686;9.170;2023-05-02T13:22:51;14.13;;;12.63;;
39620;SDS011;25309;48.686;9.170;2023-05-02T13:25:18;15.43;;;13.87;;
39620;SDS011;25309;48.686;9.170;2023-05-02T13:27:45;14.30;;;12.23;;
39620;SDS011;25309;48.686;9.170;2023-05-02T13:30:12;14.47;;;12.40;;
39620;SDS011;25309;48.686;9.170;2023-05-02T13:32:39;12.97;;;11.67;;
39620;SDS011;25309;48.686;9.170;2023-05-02T13:35:07;13.33;;;11.93;;
39620;SDS011;25309;48.686;9.170;2023-05-02T13:37:35;14.63;;;13.13;;
39620;SDS011;25309;48.686;9.170;2023-05-02T13:40:03;15.70;;;14.07;;
39620;SDS011;25309;48.686;9.170;2023-05-02T13:42:31;15.60;;;13.20;;
39620;SDS011;25309;48.686;9.170;2023-05-02T13:44:59;14.50;;;12.53;;
39620;SDS011;25309;48.686;9.170;2023-05-02T13:47:30;14.00;;;12.50;;
39620;SDS011;25309;48.686;9.170;2023-05-02T13:49:57;13.47;;;11.87;;
39620;SDS011;25309;48.686;9.170;2023-05-02T13:52:24;13.87;;;12.37;;
39620;SDS011;25309;48.686;9.170;2023-05-02T13:54:51;14.67;;;12.20;;
39620;SDS011;25309;48.686;9.170;2023-05-02T13:57:19;13.70;;;12.30;;
39620;SDS011;25309;48.686;9.170;2023-05-02T13:59:46;12.87;;;11.43;;
39620;SDS011;25309;48.686;9.170;2023-05-02T14:02:13;12.33;;;11.03;;
39620;SDS011;25309;48.686;9.170;2023-05-02T14:04:40;12.90;;;11.60;;
39620;SDS011;25309;48.686;9.170;2023-05-02T14:07:07;12.60;;;11.30;;
39620;SDS011;25309;48.686;9.170;2023-05-02T14:09:34;12.60;;;11.20;;
39620;SDS011;25309;48.686;9.170;2023-05-02T14:12:01;11.10;;;10.00;;
39620;SDS011;25309;48.686;9.170;2023-05-02T14:14:29;11.03;;;9.83;;
39620;SDS011;25309;48.686;9.170;2023-05-02T14:16:57;11.60;;;10.13;;
39620;SDS011;25309;48.686;9.170;2023-05-02T14:19:24;11.10;;;10.00;;
39620;SDS011;25309;48.686;9.170;2023-05-02T14:21:51;10.87;;;9.67;;
39620;SDS011;25309;48.686;9.170;2023-05-02T14:24:18;11.40;;;10.20;;
39620;SDS011;25309;48.686;9.170;2023-05-02T14:26:45;11.70;;;10.50;;
39620;SDS011;25309;48.686;9.170;2023-05-02T14:29:12;12.50;;;10.73;;
39620;SDS011;25309;48.686;9.170;2023-05-02T14:31:41;12.00;;;10.37;;
39620;SDS011;25309;48.686;9.170;2023-05-02T14:34:08;10.97;;;9.77;;
39620;SDS011;25309;48.686;9.170;2023-05-02T14:36:35;12.17;;;10.97;;
39620;SDS011;25309;48.686;9.170;2023-05-02T14:39:02;11.60;;;10.10;;
39620;SDS011;25309;48.686;9.170;2023-05-02T14:41:29;13.10;;;10.70;;
39620;SDS011;25309;48.686;9.170;2023-05-02T14:43:56;10.13;;;8.07;;
39620;SDS011;25309;48.686;9.170;2023-05-02T14:46:23;9.10;;;8.20;;
39620;SDS011;25309;48.686;9.170;2023-05-02T14:48:51;7.77;;;6.97;;
39620;SDS011;25309;48.686;9.170;2023-05-02T14:51:18;7.77;;;6.87;;
39620;SDS011;25309;48.686;9.170;2023-05-02T14:53:46;7.80;;;6.90;;
39620;SDS011;25309;48.686;9.170;2023-05-02T14:56:13;11.23;;;9.43;;
39620;SDS011;25309;48.686;9.170;2023-05-02T14:58:42;9.77;;;8.63;;
39620;SDS011;25309;48.686;9.170;2023-05-02T15:01:15;9.87;;;8.77;;